createdAt,value
2019-03-12T00:01:16.065Z,5.48
2019-03-12T00:03:43.447Z,5.46
2019-03-12T00:06:10.875Z,5.49
2019-03-12T00:08:38.251Z,5.59
2019-03-12T00:11:05.676Z,5.61
2019-03-12T00:13:33.092Z,5.64
2019-03-12T00:16:00.486Z,5.62
2019-03-12T00:18:28.517Z,5.56
2019-03-12T00:20:55.286Z,5.55
2019-03-12T00:23:22.682Z,5.63
2019-03-12T00:25:50.084Z,5.75
2019-03-12T00:28:18.412Z,5.77
2019-03-12T00:30:45.796Z,5.79
2019-03-12T00:33:13.191Z,5.75
2019-03-12T00:35:40.589Z,5.67
2019-03-12T00:38:08.004Z,5.75
2019-03-12T00:40:35.410Z,5.79
2019-03-12T00:43:02.870Z,5.71
2019-03-12T00:45:30.269Z,5.47
2019-03-12T00:47:57.687Z,5.51
2019-03-12T00:50:25.088Z,5.41
2019-03-12T00:52:52.472Z,5.30
2019-03-12T00:55:19.880Z,5.21
2019-03-12T00:57:47.264Z,5.14
2019-03-12T01:00:17.534Z,5.15
2019-03-12T01:02:44.912Z,5.04
2019-03-12T01:05:12.307Z,5.12
2019-03-12T01:07:39.900Z,5.21
2019-03-12T01:10:16.006Z,5.31
2019-03-12T01:12:43.698Z,5.31
2019-03-12T01:15:11.894Z,5.25
2019-03-12T01:17:39.301Z,5.33
2019-03-12T01:20:06.706Z,5.27
2019-03-12T01:22:34.096Z,5.11
2019-03-12T01:25:01.511Z,5.04
2019-03-12T01:27:28.962Z,5.11
2019-03-12T01:29:56.417Z,5.07
2019-03-12T01:32:23.859Z,5.11
2019-03-12T01:34:51.271Z,5.19
2019-03-12T01:37:18.782Z,5.16
2019-03-12T01:39:46.287Z,5.08
2019-03-12T01:42:13.693Z,5.04
2019-03-12T01:44:41.093Z,4.97
2019-03-12T01:47:08.490Z,4.88
2019-03-12T01:49:35.891Z,4.91
2019-03-12T01:52:03.347Z,4.89
2019-03-12T01:54:30.776Z,4.87
2019-03-12T01:56:58.240Z,4.82
2019-03-12T01:59:25.640Z,4.78
2019-03-12T02:01:53.074Z,4.85
2019-03-12T02:04:20.472Z,5.04
2019-03-12T02:06:47.872Z,5.19
2019-03-12T02:09:15.321Z,5.28
2019-03-12T02:11:42.722Z,5.28
2019-03-12T02:14:20.719Z,5.21
2019-03-12T02:16:48.141Z,5.23
2019-03-12T02:19:15.535Z,5.16
2019-03-12T02:21:42.939Z,5.12
2019-03-12T02:24:10.351Z,5.07
2019-03-12T02:26:37.749Z,4.96
2019-03-12T02:29:05.149Z,4.87
2019-03-12T02:31:32.569Z,4.82
2019-03-12T02:33:59.952Z,4.93
2019-03-12T02:36:27.379Z,4.95
2019-03-12T02:38:54.786Z,4.96
2019-03-12T02:41:22.346Z,4.96
2019-03-12T02:43:49.760Z,4.92
2019-03-12T02:46:17.337Z,4.88
2019-03-12T02:48:44.739Z,4.79
2019-03-12T02:51:12.136Z,4.69
2019-03-12T02:53:39.529Z,4.65
2019-03-12T02:56:06.941Z,4.71
2019-03-12T02:58:34.503Z,4.64
2019-03-12T03:01:01.960Z,4.58
2019-03-12T03:03:29.367Z,4.48
2019-03-12T03:05:57.616Z,4.33
2019-03-12T03:08:25.019Z,4.28
2019-03-12T03:10:52.503Z,4.30
2019-03-12T03:13:19.913Z,4.27
2019-03-12T03:15:47.314Z,4.24
2019-03-12T03:18:15.594Z,4.26
2019-03-12T03:20:43.067Z,4.39
2019-03-12T03:23:10.813Z,4.40
2019-03-12T03:25:38.200Z,4.33
2019-03-12T03:28:05.596Z,4.28
2019-03-12T03:30:33.028Z,4.27
2019-03-12T03:33:00.473Z,4.19
2019-03-12T03:35:27.886Z,4.08
2019-03-12T03:37:55.293Z,4.04
2019-03-12T03:40:22.716Z,4.01
2019-03-12T03:42:50.117Z,3.90
2019-03-12T03:45:17.630Z,3.94
2019-03-12T03:47:45.053Z,3.97
2019-03-12T03:50:12.565Z,4.00
2019-03-12T03:52:40.014Z,4.01
2019-03-12T03:55:07.429Z,4.00
2019-03-12T03:57:34.829Z,4.04
2019-03-12T04:00:02.393Z,4.19
2019-03-12T04:02:29.831Z,4.18
2019-03-12T04:04:57.272Z,4.23
2019-03-12T04:07:24.659Z,4.24
2019-03-12T04:09:52.106Z,4.33
2019-03-12T04:12:19.490Z,4.35
2019-03-12T04:14:46.884Z,4.39
2019-03-12T04:17:14.329Z,4.44
2019-03-12T04:19:41.718Z,4.55
2019-03-12T04:22:09.185Z,4.58
2019-03-12T04:24:36.567Z,4.61
2019-03-12T04:27:03.959Z,4.65
2019-03-12T04:29:31.501Z,4.58
2019-03-12T04:31:58.889Z,4.47
2019-03-12T04:34:26.265Z,4.47
2019-03-12T04:36:53.695Z,4.55
2019-03-12T04:39:21.087Z,4.55
2019-03-12T04:41:48.483Z,4.44
2019-03-12T04:44:15.874Z,4.36
2019-03-12T04:46:43.278Z,4.43
2019-03-12T04:49:10.671Z,4.47
2019-03-12T04:51:38.059Z,4.50
2019-03-12T04:54:05.479Z,4.45
2019-03-12T04:56:32.879Z,4.22
2019-03-12T04:59:00.327Z,3.97
2019-03-12T05:01:27.722Z,3.98
2019-03-12T05:03:55.107Z,4.03
2019-03-12T05:06:22.503Z,4.11
2019-03-12T05:08:49.945Z,3.97
2019-03-12T05:11:17.327Z,3.97
2019-03-12T05:13:44.870Z,3.94
2019-03-12T05:16:12.262Z,3.81
2019-03-12T05:18:39.659Z,3.59
2019-03-12T05:21:07.182Z,3.42
2019-03-12T05:23:35.469Z,3.48
2019-03-12T05:26:02.861Z,3.64
2019-03-12T05:28:30.265Z,3.72
2019-03-12T05:30:58.569Z,3.79
2019-03-12T05:33:25.978Z,3.91
2019-03-12T05:35:53.417Z,3.97
2019-03-12T05:38:20.976Z,3.95
2019-03-12T05:40:48.377Z,3.98
2019-03-12T05:43:15.782Z,4.02
2019-03-12T05:45:43.166Z,3.95
2019-03-12T05:48:10.575Z,3.90
2019-03-12T05:50:37.967Z,3.78
2019-03-12T05:53:14.530Z,3.68
2019-03-12T05:55:41.926Z,3.83
2019-03-12T05:58:09.327Z,3.95
2019-03-12T06:00:36.798Z,3.86
2019-03-12T06:03:04.219Z,3.51
2019-03-12T06:05:32.484Z,3.33
2019-03-12T06:07:59.872Z,3.24
2019-03-12T06:10:27.443Z,3.28
2019-03-12T06:12:54.890Z,3.22
2019-03-12T06:15:22.282Z,3.28
2019-03-12T06:17:49.825Z,3.30
2019-03-12T06:20:17.273Z,3.40
2019-03-12T06:22:44.751Z,3.45
2019-03-12T06:25:12.143Z,3.61
2019-03-12T06:27:39.642Z,3.71
2019-03-12T06:30:18.237Z,3.87
2019-03-12T06:32:45.672Z,4.07
2019-03-12T06:35:13.084Z,4.29
2019-03-12T06:40:36.993Z,4.94
2019-03-12T06:43:05.292Z,4.97
2019-03-12T06:45:33.176Z,5.01
2019-03-12T06:48:06.294Z,4.95
2019-03-12T06:50:35.197Z,5.05
2019-03-12T06:53:08.392Z,5.17
2019-03-12T06:55:35.861Z,5.22
2019-03-12T06:58:24.768Z,5.23
2019-03-12T07:00:57.104Z,5.27
2019-03-12T07:03:24.552Z,5.28
2019-03-12T07:09:01.927Z,5.58
2019-03-12T07:11:33.640Z,5.26
2019-03-12T07:14:01.827Z,5.47
2019-03-12T07:16:29.291Z,5.69
2019-03-12T07:19:02.248Z,5.89
2019-03-12T07:21:34.133Z,5.84
2019-03-12T07:24:07.265Z,5.98
2019-03-12T07:26:36.572Z,6.11
2019-03-12T07:29:04.324Z,5.73
2019-03-12T07:31:37.190Z,5.60
2019-03-12T07:34:04.598Z,5.71
2019-03-12T07:36:52.737Z,5.85
2019-03-12T07:39:24.157Z,6.25
2019-03-12T07:41:54.517Z,6.28
2019-03-12T07:44:22.007Z,6.32
2019-03-12T07:46:49.423Z,6.73
2019-03-12T07:49:21.266Z,7.13
2019-03-12T07:51:50.679Z,7.44
2019-03-12T07:54:18.362Z,7.71
2019-03-12T07:56:46.668Z,7.89
2019-03-12T07:59:20.009Z,8.11
2019-03-12T08:01:48.299Z,8.24
2019-03-12T08:07:32.800Z,8.98
2019-03-12T08:10:01.339Z,8.89
2019-03-12T08:12:34.182Z,9.06
2019-03-12T08:18:05.746Z,9.55
2019-03-12T08:20:49.976Z,9.02
2019-03-12T08:23:18.849Z,8.91
2019-03-12T08:25:52.426Z,9.09
2019-03-12T08:28:23.919Z,9.18
2019-03-12T08:31:01.694Z,9.18
2019-03-12T08:33:31.263Z,9.22
2019-03-12T08:35:58.199Z,9.34
2019-03-12T08:38:31.237Z,9.23
2019-03-12T08:41:02.230Z,9.05
2019-03-12T08:43:35.209Z,8.71
2019-03-12T08:46:05.216Z,8.62
2019-03-12T08:48:32.623Z,8.58
2019-03-12T08:51:08.598Z,8.82
2019-03-12T08:53:40.838Z,9.05
2019-03-12T08:56:10.201Z,9.15
2019-03-12T08:58:43.512Z,9.24
2019-03-12T09:01:11.682Z,9.25
2019-03-12T09:03:39.127Z,9.37
2019-03-12T09:06:07.032Z,9.55
2019-03-12T09:08:35.180Z,9.55
2019-03-12T09:11:20.657Z,9.47
2019-03-12T09:13:52.361Z,9.54
2019-03-12T09:16:19.415Z,9.79
2019-03-12T09:18:47.739Z,10.17
2019-03-12T09:21:19.740Z,10.44
2019-03-12T09:23:47.140Z,10.39
2019-03-12T09:26:24.517Z,9.88
2019-03-12T09:29:07.718Z,9.84
2019-03-12T09:31:45.042Z,9.48
2019-03-12T09:34:12.479Z,9.42
2019-03-12T09:36:40.215Z,9.51
2019-03-12T09:39:13.175Z,9.86
2019-03-12T09:41:46.209Z,10.17
2019-03-12T09:44:14.742Z,10.42
2019-03-12T09:46:45.958Z,10.53
2019-03-12T09:49:19.008Z,10.66
2019-03-12T09:52:02.313Z,10.49
2019-03-12T09:54:35.563Z,10.54
2019-03-12T09:57:05.832Z,10.59
2019-03-12T09:59:52.916Z,10.63
2019-03-12T10:02:24.933Z,10.66
2019-03-12T10:04:58.111Z,10.92
2019-03-12T10:07:28.085Z,10.90
2019-03-12T10:09:59.063Z,10.81
2019-03-12T10:12:29.140Z,10.75
2019-03-12T10:15:02.219Z,10.76
2019-03-12T10:17:45.445Z,10.84
2019-03-12T10:20:18.574Z,10.83
2019-03-12T10:22:52.486Z,10.79
2019-03-12T10:25:25.939Z,10.58
2019-03-12T10:27:54.331Z,10.25
2019-03-12T10:30:26.339Z,10.12
2019-03-12T10:32:59.719Z,10.26
2019-03-12T10:35:37.006Z,10.04
2019-03-12T10:38:16.015Z,9.89
2019-03-12T10:40:59.208Z,10.04
2019-03-12T10:43:26.645Z,10.45
2019-03-12T10:46:04.624Z,10.75
2019-03-12T10:48:32.321Z,11.08
2019-03-12T10:50:59.812Z,11.41
2019-03-12T10:53:27.376Z,12.05
2019-03-12T10:55:54.822Z,12.16
2019-03-12T10:58:22.413Z,12.14
2019-03-12T11:00:50.262Z,12.49
2019-03-12T11:03:17.672Z,13.23
2019-03-12T11:05:46.417Z,13.74
2019-03-12T11:08:12.727Z,13.49
2019-03-12T11:10:40.145Z,13.52
2019-03-12T11:13:07.569Z,13.74
2019-03-12T11:15:34.981Z,13.75
2019-03-12T11:18:02.394Z,14.20
2019-03-12T11:20:29.839Z,14.44
2019-03-12T11:22:57.272Z,14.69
2019-03-12T11:25:27.646Z,14.60
2019-03-12T11:27:52.175Z,14.54
2019-03-12T11:30:19.689Z,14.51
2019-03-12T11:32:46.702Z,14.65
2019-03-12T11:35:13.801Z,14.43
2019-03-12T11:37:40.930Z,15.08
2019-03-12T11:40:25.294Z,15.84
2019-03-12T11:42:51.869Z,15.88
2019-03-12T11:45:20.441Z,16.03
2019-03-12T11:47:46.376Z,16.03
2019-03-12T11:50:13.546Z,16.49
2019-03-12T11:52:40.620Z,16.89
2019-03-12T11:55:07.629Z,16.94
2019-03-12T11:57:35.441Z,16.91
2019-03-12T12:00:02.446Z,17.36
2019-03-12T12:02:29.895Z,18.05
2019-03-12T12:04:57.962Z,18.49
2019-03-12T12:07:25.409Z,18.20
2019-03-12T12:09:52.849Z,17.86
2019-03-12T12:12:20.233Z,17.74
2019-03-12T12:14:47.665Z,17.97
2019-03-12T12:17:15.180Z,18.39
2019-03-12T12:19:42.648Z,18.52
2019-03-12T12:22:10.046Z,18.17
2019-03-12T12:24:38.314Z,18.59
2019-03-12T12:27:06.143Z,18.63
2019-03-12T12:29:34.259Z,18.85
2019-03-12T12:32:01.250Z,19.03
2019-03-12T12:34:28.239Z,18.77
2019-03-12T12:36:55.203Z,19.01
2019-03-12T12:39:22.143Z,19.35
2019-03-12T12:41:49.258Z,19.57
2019-03-12T12:44:16.214Z,19.67
2019-03-12T12:46:43.655Z,19.25
2019-03-12T12:49:10.623Z,18.55
2019-03-12T12:51:37.629Z,18.98
2019-03-12T12:54:05.055Z,19.22
2019-03-12T12:56:32.702Z,19.61
2019-03-12T12:59:00.132Z,19.69
2019-03-12T13:01:27.558Z,19.68
2019-03-12T13:03:54.989Z,19.86
2019-03-12T13:06:21.965Z,19.27
2019-03-12T13:08:49.513Z,18.41
2019-03-12T13:11:17.066Z,17.79
2019-03-12T13:13:44.503Z,17.18
2019-03-12T13:16:24.104Z,17.09
2019-03-12T13:18:39.414Z,17.68
2019-03-12T13:21:07.056Z,18.68
2019-03-12T13:23:36.199Z,19.37
2019-03-12T13:26:01.907Z,19.81
2019-03-12T13:28:29.582Z,19.50
2019-03-12T13:30:57.078Z,18.85
2019-03-12T13:33:25.435Z,18.74
2019-03-12T13:35:52.875Z,18.84
2019-03-12T13:38:20.929Z,19.46
2019-03-12T13:40:48.461Z,20.35
2019-03-12T13:43:15.931Z,20.66
2019-03-12T13:45:43.327Z,19.40
2019-03-12T13:48:10.766Z,18.34
2019-03-12T13:50:38.315Z,19.25
2019-03-12T13:53:05.640Z,19.96
2019-03-12T13:55:33.473Z,20.12
2019-03-12T13:58:00.524Z,20.10
2019-03-12T14:00:28.269Z,20.53
2019-03-12T14:02:55.690Z,20.72
2019-03-12T14:05:22.709Z,20.72
2019-03-12T14:07:49.651Z,20.33
2019-03-12T14:10:21.408Z,19.85
2019-03-12T14:12:48.381Z,19.58
2019-03-12T14:15:16.323Z,19.70
2019-03-12T14:17:43.329Z,19.83
2019-03-12T14:20:16.242Z,19.65
2019-03-12T14:22:43.187Z,19.49
2019-03-12T14:25:11.104Z,19.28
2019-03-12T14:27:38.117Z,18.62
2019-03-12T14:30:05.069Z,18.59
2019-03-12T14:32:32.370Z,18.66
2019-03-12T14:34:59.332Z,18.62
2019-03-12T14:37:26.889Z,18.37
2019-03-12T14:39:54.442Z,18.01
2019-03-12T14:42:21.936Z,18.07
2019-03-12T14:44:49.509Z,17.67
2019-03-12T14:47:16.979Z,17.28
2019-03-12T14:49:44.484Z,16.69
2019-03-12T14:52:11.953Z,16.70
2019-03-12T14:54:39.523Z,17.01
2019-03-12T14:57:06.962Z,16.81
2019-03-12T14:59:34.499Z,16.48
2019-03-12T15:02:01.959Z,16.11
2019-03-12T15:04:29.675Z,15.68
2019-03-12T15:06:57.723Z,15.60
2019-03-12T15:09:25.145Z,15.85
2019-03-12T15:11:52.617Z,16.02
2019-03-12T15:14:20.047Z,16.22
2019-03-12T15:16:47.511Z,16.37
2019-03-12T15:19:14.958Z,16.25
2019-03-12T15:21:42.475Z,16.13
2019-03-12T15:24:10.798Z,16.18
2019-03-12T15:26:38.316Z,16.25
2019-03-12T15:29:05.717Z,16.80
2019-03-12T15:31:33.195Z,17.54
2019-03-12T15:34:00.586Z,17.38
2019-03-12T15:36:28.104Z,16.80
2019-03-12T15:38:55.527Z,16.04
2019-03-12T15:41:23.602Z,15.35
2019-03-12T15:43:51.029Z,15.16
2019-03-12T15:46:18.491Z,15.30
2019-03-12T15:48:46.013Z,15.27
2019-03-12T15:51:13.492Z,15.40
2019-03-12T15:53:40.941Z,15.09
2019-03-12T15:56:08.473Z,14.77
2019-03-12T15:58:36.142Z,14.67
2019-03-12T16:01:03.603Z,14.85
2019-03-12T16:03:31.059Z,15.03
2019-03-12T16:05:58.456Z,15.00
2019-03-12T16:08:25.865Z,14.98
2019-03-12T16:10:58.344Z,14.96
2019-03-12T16:13:21.170Z,14.89
2019-03-12T16:15:48.612Z,14.70
2019-03-12T16:18:16.276Z,14.50
2019-03-12T16:20:43.694Z,14.59
2019-03-12T16:23:10.652Z,14.48
2019-03-12T16:25:37.586Z,14.46
2019-03-12T16:28:04.607Z,14.35
2019-03-12T16:30:31.567Z,14.16
2019-03-12T16:32:58.703Z,14.09
2019-03-12T16:35:25.691Z,14.00
2019-03-12T16:37:52.648Z,13.91
2019-03-12T16:40:19.698Z,13.88
2019-03-12T16:42:47.078Z,13.88
2019-03-12T16:45:18.178Z,13.89
2019-03-12T16:47:45.687Z,13.76
2019-03-12T16:50:14.095Z,13.62
2019-03-12T16:52:41.662Z,13.55
2019-03-12T16:55:09.074Z,13.42
2019-03-12T16:57:36.673Z,13.24
2019-03-12T17:00:08.370Z,13.14
2019-03-12T17:02:32.408Z,13.13
2019-03-12T17:05:00.710Z,13.09
2019-03-12T17:07:28.334Z,13.01
2019-03-12T17:09:55.764Z,13.04
2019-03-12T17:12:23.269Z,13.05
2019-03-12T17:14:50.679Z,13.06
2019-03-12T17:17:18.099Z,13.00
2019-03-12T17:19:45.520Z,12.97
2019-03-12T17:22:13.075Z,13.04
2019-03-12T17:24:40.475Z,12.96
2019-03-12T17:27:07.883Z,12.86
2019-03-12T17:29:35.288Z,12.83
2019-03-12T17:32:02.745Z,12.78
2019-03-12T17:34:35.697Z,12.68
2019-03-12T17:36:58.696Z,12.64
2019-03-12T17:39:26.202Z,12.55
2019-03-12T17:41:53.648Z,12.52
2019-03-12T17:44:21.118Z,12.43
2019-03-12T17:46:48.512Z,12.39
2019-03-12T17:49:15.955Z,12.36
2019-03-12T17:51:43.445Z,12.18
2019-03-12T17:54:10.798Z,12.07
2019-03-12T17:56:38.295Z,11.96
2019-03-12T17:59:05.709Z,11.92
2019-03-12T18:01:33.102Z,11.90
2019-03-12T18:04:00.513Z,11.86
2019-03-12T18:06:27.952Z,11.82
2019-03-12T18:08:55.402Z,11.78
2019-03-12T18:11:22.815Z,11.73
2019-03-12T18:13:50.215Z,11.73
2019-03-12T18:16:17.656Z,11.74
2019-03-12T18:18:45.109Z,11.76
2019-03-12T18:21:12.514Z,11.77
2019-03-12T18:23:39.932Z,11.77
2019-03-12T18:26:07.475Z,11.80
2019-03-12T18:28:34.885Z,11.81
2019-03-12T18:31:02.318Z,11.83
2019-03-12T18:33:29.847Z,11.86
2019-03-12T18:35:57.341Z,11.91
2019-03-12T18:38:24.807Z,11.97
2019-03-12T18:40:52.280Z,12.04
2019-03-12T18:43:19.739Z,12.08
2019-03-12T18:45:47.150Z,12.13
2019-03-12T18:48:14.626Z,12.15
2019-03-12T18:50:42.047Z,12.16
2019-03-12T18:53:09.523Z,12.16
2019-03-12T18:55:39.018Z,12.12
2019-03-12T18:58:06.449Z,12.12
2019-03-12T19:00:33.859Z,12.18
2019-03-12T19:03:01.327Z,12.23
2019-03-12T19:05:29.707Z,12.35
2019-03-12T19:07:57.117Z,12.48
2019-03-12T19:10:24.759Z,12.62
2019-03-12T19:12:52.157Z,12.71
2019-03-12T19:15:19.575Z,12.80
2019-03-12T19:17:47.019Z,12.85
2019-03-12T19:20:15.329Z,12.89
2019-03-12T19:22:42.725Z,12.96
2019-03-12T19:25:11.856Z,12.94
2019-03-12T19:27:39.345Z,12.87
2019-03-12T19:30:11.554Z,12.83
2019-03-12T19:32:39.769Z,12.78
2019-03-12T19:35:10.086Z,12.77
2019-03-12T19:37:37.542Z,12.77
2019-03-12T19:40:07.531Z,12.74
2019-03-12T19:42:34.965Z,12.72
2019-03-12T19:45:02.364Z,12.68
2019-03-12T19:47:30.292Z,12.67
2019-03-12T19:49:57.694Z,12.66
2019-03-12T19:52:25.090Z,12.66
2019-03-12T19:54:52.487Z,12.65
2019-03-12T19:57:19.909Z,12.64
2019-03-12T19:59:47.433Z,12.64
2019-03-12T20:02:16.617Z,12.64
2019-03-12T20:04:47.496Z,12.62
2019-03-12T20:07:10.648Z,12.61
2019-03-12T20:09:38.060Z,12.59
2019-03-12T20:12:17.185Z,12.56
2019-03-12T20:17:54.341Z,12.79
2019-03-12T20:20:30.123Z,12.67
2019-03-12T20:23:03.471Z,12.60
2019-03-12T20:25:43.330Z,12.54
2019-03-12T20:31:43.319Z,12.71
2019-03-12T20:37:47.001Z,12.85
2019-03-12T20:43:38.332Z,12.95
2019-03-12T20:49:15.790Z,13.10
2019-03-12T20:51:50.724Z,13.06
2019-03-12T20:54:25.983Z,12.99
2019-03-12T20:56:59.210Z,12.96
2019-03-12T20:59:50.332Z,12.95
2019-03-12T21:02:33.492Z,12.96
2019-03-12T21:11:32.125Z,13.42
2019-03-12T21:14:11.174Z,13.29
2019-03-12T21:16:44.063Z,13.18
2019-03-12T21:19:13.287Z,13.15
2019-03-12T21:21:42.492Z,13.14
2019-03-12T21:24:12.076Z,13.11
2019-03-12T21:26:48.157Z,13.09
2019-03-12T21:29:27.338Z,13.07
2019-03-12T21:31:54.815Z,13.05
2019-03-12T21:34:22.256Z,13.06
2019-03-12T21:36:49.661Z,13.08
2019-03-12T21:39:17.093Z,13.08
2019-03-12T21:41:44.532Z,13.07
2019-03-12T21:44:12.086Z,13.08
2019-03-12T21:46:39.618Z,13.07
2019-03-12T21:49:07.059Z,13.08
2019-03-12T21:51:34.507Z,13.08
2019-03-12T21:54:01.911Z,13.08
2019-03-12T21:56:29.329Z,13.09
2019-03-12T21:58:56.716Z,13.05
2019-03-12T22:01:24.157Z,13.06
2019-03-12T22:03:51.615Z,13.06
2019-03-12T22:06:19.024Z,13.04
2019-03-12T22:08:46.701Z,13.01
2019-03-12T22:11:14.131Z,12.99
2019-03-12T22:13:41.535Z,12.98
2019-03-12T22:16:08.923Z,12.96
2019-03-12T22:18:36.614Z,12.93
2019-03-12T22:21:04.022Z,12.92
2019-03-12T22:23:47.145Z,12.93
2019-03-12T22:26:14.691Z,12.91
2019-03-12T22:28:42.162Z,12.90
2019-03-12T22:31:09.495Z,12.92
2019-03-12T22:33:37.050Z,12.94
2019-03-12T22:36:04.429Z,12.95
2019-03-12T22:38:31.861Z,12.96
2019-03-12T22:40:59.243Z,12.99
2019-03-12T22:43:26.641Z,12.99
2019-03-12T22:45:54.057Z,12.98
2019-03-12T22:48:21.456Z,12.96
2019-03-12T22:50:48.871Z,12.97
2019-03-12T22:53:16.282Z,12.98
2019-03-12T22:55:43.676Z,12.97
2019-03-12T22:58:11.093Z,12.98
2019-03-12T23:00:38.533Z,12.96
2019-03-12T23:03:05.947Z,12.96
2019-03-12T23:05:33.366Z,12.95
2019-03-12T23:08:00.808Z,12.96
2019-03-12T23:10:28.228Z,12.94
2019-03-12T23:12:55.621Z,12.91
2019-03-12T23:15:23.053Z,12.90
2019-03-12T23:17:50.570Z,12.89
2019-03-12T23:20:18.798Z,12.86
2019-03-12T23:22:46.212Z,12.82
2019-03-12T23:25:13.623Z,12.79
2019-03-12T23:27:41.033Z,12.74
2019-03-12T23:30:10.958Z,12.73
2019-03-12T23:32:38.367Z,12.71
2019-03-12T23:35:05.804Z,12.73
2019-03-12T23:37:33.195Z,12.76
2019-03-12T23:40:00.769Z,12.82
2019-03-12T23:42:28.191Z,12.84
2019-03-12T23:44:56.101Z,12.70
2019-03-12T23:47:23.599Z,12.47
2019-03-12T23:49:50.998Z,12.26
2019-03-12T23:52:17.932Z,12.14
2019-03-12T23:54:46.316Z,11.90
2019-03-12T23:57:13.740Z,11.56
2019-03-12T23:59:41.152Z,11.27
